createdAt,value
2022-11-26T00:01:18.702Z,6.60
2022-11-26T00:03:46.158Z,6.50
2022-11-26T00:06:35.997Z,6.50
2022-11-26T00:09:05.304Z,6.40
2022-11-26T00:11:32.471Z,6.40
2022-11-26T00:13:59.332Z,6.40
2022-11-26T00:16:26.543Z,6.40
2022-11-26T00:18:53.368Z,6.40
2022-11-26T00:21:25.358Z,6.30
2022-11-26T00:23:53.475Z,6.30
2022-11-26T00:26:22.686Z,6.30
2022-11-26T00:29:00.447Z,6.30
2022-11-26T00:31:28.592Z,6.20
2022-11-26T00:33:55.350Z,6.20
2022-11-26T00:36:31.244Z,6.20
2022-11-26T00:39:11.276Z,6.20
2022-11-26T00:41:39.569Z,6.10
2022-11-26T00:44:20.852Z,6.10
2022-11-26T00:46:48.566Z,6.10
2022-11-26T00:49:16.218Z,6.10
2022-11-26T00:51:43.552Z,6.00
2022-11-26T00:54:12.765Z,6.00
2022-11-26T00:56:40.232Z,6.00
2022-11-26T00:59:07.200Z,6.00
2022-11-26T01:01:34.033Z,5.90
2022-11-26T01:04:00.809Z,5.90
2022-11-26T01:06:36.965Z,5.90
2022-11-26T01:09:05.139Z,5.80
2022-11-26T01:11:32.279Z,5.80
2022-11-26T01:13:59.342Z,5.70
2022-11-26T01:16:28.713Z,5.70
2022-11-26T01:18:57.609Z,5.70
2022-11-26T01:21:26.419Z,5.70
2022-11-26T01:23:53.340Z,5.70
2022-11-26T01:26:25.661Z,5.60
2022-11-26T01:28:52.573Z,5.60
2022-11-26T01:31:24.878Z,5.60
2022-11-26T01:33:51.822Z,5.60
2022-11-26T01:36:25.852Z,5.60
2022-11-26T01:38:54.781Z,5.60
2022-11-26T01:41:39.772Z,5.50
2022-11-26T01:44:14.015Z,5.50
2022-11-26T01:46:40.964Z,5.40
2022-11-26T01:49:25.423Z,5.40
2022-11-26T01:52:19.698Z,5.40
2022-11-26T01:54:47.266Z,5.40
2022-11-26T01:57:19.543Z,5.40
2022-11-26T01:59:50.301Z,5.30
2022-11-26T02:02:17.692Z,5.30
2022-11-26T02:04:56.353Z,5.30
2022-11-26T02:07:23.328Z,5.30
2022-11-26T02:09:50.198Z,5.30
2022-11-26T02:12:16.986Z,5.20
2022-11-26T02:14:44.306Z,5.20
2022-11-26T02:17:30.485Z,5.20
2022-11-26T02:20:34.943Z,5.10
2022-11-26T02:23:34.030Z,5.10
2022-11-26T02:26:20.709Z,5.10
2022-11-26T02:28:54.853Z,5.10
2022-11-26T02:31:55.819Z,5.00
2022-11-26T02:34:45.948Z,5.00
2022-11-26T02:37:25.201Z,5.00
2022-11-26T02:39:52.181Z,5.00
2022-11-26T02:42:24.732Z,5.00
2022-11-26T02:44:52.043Z,4.90
2022-11-26T02:47:19.184Z,5.00
2022-11-26T02:49:47.672Z,5.00
2022-11-26T02:52:15.148Z,5.00
2022-11-26T02:54:42.472Z,5.00
2022-11-26T02:57:11.847Z,5.00
2022-11-26T02:59:38.988Z,5.00
2022-11-26T03:02:11.273Z,5.00
2022-11-26T03:04:41.280Z,5.10
2022-11-26T03:07:09.770Z,5.10
2022-11-26T03:09:41.710Z,5.10
2022-11-26T03:12:08.866Z,5.10
2022-11-26T03:14:36.037Z,5.20
2022-11-26T03:17:03.046Z,5.20
2022-11-26T03:19:29.793Z,5.20
2022-11-26T03:21:56.564Z,5.30
2022-11-26T03:24:23.335Z,5.30
2022-11-26T03:26:50.149Z,5.30
2022-11-26T03:29:16.949Z,5.30
2022-11-26T03:31:43.765Z,5.40
2022-11-26T03:34:10.649Z,5.40
2022-11-26T03:36:37.413Z,5.40
2022-11-26T03:39:04.476Z,5.50
2022-11-26T03:41:31.329Z,5.50
2022-11-26T03:43:58.467Z,5.60
2022-11-26T03:46:25.330Z,5.60
2022-11-26T03:48:52.100Z,5.70
2022-11-26T03:51:18.835Z,5.70
2022-11-26T03:53:45.821Z,5.70
2022-11-26T03:56:12.815Z,5.80
2022-11-26T03:58:39.922Z,5.80
2022-11-26T04:01:12.084Z,5.90
2022-11-26T04:03:39.549Z,5.90
2022-11-26T04:06:06.806Z,5.90
2022-11-26T04:08:33.883Z,6.00
2022-11-26T04:11:00.769Z,6.00
2022-11-26T04:13:27.539Z,6.00
2022-11-26T04:15:54.283Z,6.00
2022-11-26T04:18:21.199Z,6.10
2022-11-26T04:20:52.825Z,6.10
2022-11-26T04:23:20.369Z,6.10
2022-11-26T04:25:47.172Z,6.10
2022-11-26T04:28:15.168Z,6.10
2022-11-26T04:30:42.779Z,6.20
2022-11-26T04:33:09.678Z,6.20
2022-11-26T04:35:36.535Z,6.20
2022-11-26T04:38:03.335Z,6.20
2022-11-26T04:40:30.098Z,6.20
2022-11-26T04:42:56.862Z,6.30
2022-11-26T04:45:23.617Z,6.30
2022-11-26T04:47:50.407Z,6.30
2022-11-26T04:50:17.264Z,6.30
2022-11-26T04:52:44.068Z,6.30
2022-11-26T04:55:10.877Z,6.40
2022-11-26T04:57:37.687Z,6.40
2022-11-26T05:00:07.223Z,6.40
2022-11-26T05:02:34.059Z,6.40
2022-11-26T05:05:00.882Z,6.40
2022-11-26T05:07:27.873Z,6.50
2022-11-26T05:09:54.661Z,6.50
2022-11-26T05:12:21.441Z,6.50
2022-11-26T05:14:48.227Z,6.50
2022-11-26T05:17:15.990Z,6.50
2022-11-26T05:19:42.848Z,6.50
2022-11-26T05:22:09.676Z,6.50
2022-11-26T05:24:38.078Z,6.50
2022-11-26T05:27:05.206Z,6.60
2022-11-26T05:29:32.854Z,6.60
2022-11-26T05:31:59.671Z,6.60
2022-11-26T05:34:26.612Z,6.60
2022-11-26T05:36:53.383Z,6.60
2022-11-26T05:39:20.365Z,6.60
2022-11-26T05:41:47.151Z,6.50
2022-11-26T05:44:13.943Z,6.50
2022-11-26T05:46:42.697Z,6.50
2022-11-26T05:49:09.665Z,6.50
2022-11-26T05:51:36.433Z,6.40
2022-11-26T05:54:03.651Z,6.40
2022-11-26T05:56:30.405Z,6.30
2022-11-26T05:58:57.207Z,6.30
2022-11-26T06:01:23.951Z,6.20
2022-11-26T06:03:50.925Z,6.20
2022-11-26T06:06:17.703Z,6.10
2022-11-26T06:08:44.464Z,6.10
2022-11-26T06:11:13.231Z,6.00
2022-11-26T06:13:40.023Z,6.00
2022-11-26T06:16:07.101Z,5.90
2022-11-26T06:18:33.949Z,5.90
2022-11-26T06:21:01.598Z,5.80
2022-11-26T06:23:28.462Z,5.80
2022-11-26T06:25:55.492Z,5.80
2022-11-26T06:28:22.327Z,5.70
2022-11-26T06:30:49.143Z,5.70
2022-11-26T06:33:15.983Z,5.70
2022-11-26T06:35:42.726Z,5.60
2022-11-26T06:38:09.644Z,5.60
2022-11-26T06:40:36.391Z,5.60
2022-11-26T06:43:03.350Z,5.60
2022-11-26T06:45:30.191Z,5.60
2022-11-26T06:47:56.998Z,5.50
2022-11-26T06:50:23.818Z,5.50
2022-11-26T06:52:52.826Z,5.50
2022-11-26T06:55:21.321Z,5.50
2022-11-26T06:57:52.121Z,5.50
2022-11-26T07:00:22.188Z,5.50
2022-11-26T07:02:49.034Z,5.50
2022-11-26T07:05:15.843Z,5.50
2022-11-26T07:07:42.671Z,5.50
2022-11-26T07:10:09.734Z,5.50
2022-11-26T07:12:36.525Z,5.50
2022-11-26T07:15:03.548Z,5.50
2022-11-26T07:17:30.341Z,5.50
2022-11-26T07:19:57.119Z,5.50
2022-11-26T07:22:23.909Z,5.50
2022-11-26T07:24:50.682Z,5.50
2022-11-26T07:27:17.512Z,5.50
2022-11-26T07:29:44.343Z,5.50
2022-11-26T07:32:11.114Z,5.50
2022-11-26T07:34:38.161Z,5.50
2022-11-26T07:37:05.141Z,5.60
2022-11-26T07:39:31.984Z,5.60
2022-11-26T07:41:58.744Z,5.60
2022-11-26T07:44:25.574Z,5.60
2022-11-26T07:46:52.364Z,5.60
2022-11-26T07:49:19.195Z,5.60
2022-11-26T07:51:46.046Z,5.60
2022-11-26T07:54:12.835Z,5.60
2022-11-26T07:56:39.658Z,5.70
2022-11-26T07:59:06.469Z,5.70
2022-11-26T08:01:33.347Z,5.70
2022-11-26T08:04:00.759Z,5.70
2022-11-26T08:06:29.308Z,5.80
2022-11-26T10:55:47.267Z,7.10
2022-11-26T10:58:40.956Z,7.10
2022-11-26T11:01:08.265Z,7.10
2022-11-26T11:04:07.178Z,7.20
2022-11-26T11:06:43.828Z,7.20
2022-11-26T11:09:27.870Z,7.20
2022-11-26T11:12:13.680Z,7.20
2022-11-26T11:14:43.505Z,7.20
2022-11-26T11:17:32.155Z,7.20
2022-11-26T11:20:03.068Z,7.20
2022-11-26T11:22:29.980Z,7.20
2022-11-26T11:24:58.944Z,7.20
2022-11-26T11:27:46.947Z,7.20
2022-11-26T11:30:41.121Z,7.10
2022-11-26T11:33:19.577Z,7.10
2022-11-26T11:36:15.321Z,7.10
2022-11-26T11:38:48.725Z,7.10
2022-11-26T11:41:29.174Z,7.00
2022-11-26T11:44:05.625Z,7.00
2022-11-26T11:47:13.079Z,7.10
2022-11-26T11:49:46.078Z,7.10
2022-11-26T11:52:37.736Z,7.10
2022-11-26T11:55:13.700Z,7.10
2022-11-26T11:58:11.730Z,7.00
2022-11-26T12:01:09.773Z,7.00
2022-11-26T12:04:19.429Z,7.10
2022-11-26T12:07:24.796Z,7.10
2022-11-26T12:10:05.283Z,7.10
2022-11-26T12:12:37.084Z,7.10
2022-11-26T12:15:34.925Z,7.10
2022-11-26T12:18:31.444Z,7.10
2022-11-26T12:21:12.950Z,7.10
2022-11-26T12:24:00.882Z,7.10
2022-11-26T12:26:35.016Z,7.20
2022-11-26T12:29:25.625Z,7.20
2022-11-26T12:32:09.645Z,7.20
2022-11-26T12:34:57.926Z,7.20
2022-11-26T12:37:46.656Z,7.20
2022-11-26T12:40:32.163Z,7.20
2022-11-26T12:43:05.887Z,7.30
2022-11-26T12:45:56.589Z,7.30
2022-11-26T12:48:48.361Z,7.30
2022-11-26T12:51:36.932Z,7.40
2022-11-26T12:54:09.811Z,7.40
2022-11-26T12:56:41.563Z,7.40
2022-11-26T12:59:19.998Z,7.40
2022-11-26T13:01:47.069Z,7.40
2022-11-26T13:04:36.867Z,7.40
2022-11-26T13:07:09.786Z,7.40
2022-11-26T13:10:03.638Z,7.40
2022-11-26T13:12:46.815Z,7.40
2022-11-26T13:15:22.400Z,7.40
2022-11-26T13:17:50.301Z,7.30
2022-11-26T13:20:35.386Z,7.30
2022-11-26T13:23:13.193Z,7.30
2022-11-26T13:25:42.956Z,7.30
2022-11-26T13:28:38.939Z,7.30
2022-11-26T13:31:33.051Z,7.30
2022-11-26T13:34:21.188Z,7.30
2022-11-26T13:37:14.824Z,7.30
2022-11-26T13:40:03.465Z,7.30
2022-11-26T13:42:41.490Z,7.30
2022-11-26T13:45:28.543Z,7.30
2022-11-26T13:48:00.573Z,7.30
2022-11-26T13:50:35.276Z,7.20
2022-11-26T13:53:16.866Z,7.20
2022-11-26T13:55:48.211Z,7.20
2022-11-26T13:58:21.569Z,7.20
2022-11-26T14:00:48.392Z,7.20
2022-11-26T14:03:48.325Z,7.20
2022-11-26T14:06:15.530Z,7.20
2022-11-26T14:08:45.028Z,7.10
2022-11-26T14:11:16.101Z,7.10
2022-11-26T14:14:06.500Z,7.10
2022-11-26T14:17:01.870Z,7.10
2022-11-26T14:19:39.719Z,7.10
2022-11-26T14:22:08.179Z,7.10
2022-11-26T14:24:53.349Z,7.10
2022-11-26T14:27:21.476Z,7.10
2022-11-26T14:29:58.956Z,7.10
2022-11-26T14:32:28.105Z,7.10
2022-11-26T14:34:56.877Z,7.00
2022-11-26T14:37:26.660Z,7.00
2022-11-26T14:40:00.896Z,7.00
2022-11-26T14:42:28.285Z,7.00
2022-11-26T14:45:02.433Z,7.00
2022-11-26T14:47:30.497Z,7.00
2022-11-26T14:50:00.617Z,7.00
2022-11-26T14:52:37.499Z,7.00
2022-11-26T14:55:20.386Z,7.00
2022-11-26T14:57:54.447Z,7.00
2022-11-26T15:00:25.909Z,7.00
2022-11-26T15:02:53.273Z,6.90
2022-11-26T15:05:25.978Z,6.90
2022-11-26T15:08:06.651Z,6.80
2022-11-26T15:10:36.074Z,6.80
2022-11-26T15:13:14.467Z,6.70
2022-11-26T15:15:57.842Z,6.70
2022-11-26T15:18:34.216Z,6.70
2022-11-26T15:21:03.648Z,6.70
2022-11-26T15:23:37.622Z,6.70
2022-11-26T15:26:04.844Z,6.60
2022-11-26T15:28:39.033Z,6.60
2022-11-26T15:31:08.499Z,6.60
2022-11-26T15:33:37.025Z,6.60
2022-11-26T15:36:09.518Z,6.60
2022-11-26T15:39:00.113Z,6.60
2022-11-26T15:41:26.931Z,6.60
2022-11-26T15:43:56.312Z,6.60
2022-11-26T15:46:32.206Z,6.60
2022-11-26T15:49:04.727Z,6.60
2022-11-26T15:51:42.393Z,6.60
2022-11-26T15:54:49.581Z,6.60
2022-11-26T15:57:41.987Z,6.60
2022-11-26T16:00:41.696Z,6.60
2022-11-26T16:03:39.686Z,6.70
2022-11-26T16:06:08.446Z,6.70
2022-11-26T16:08:35.392Z,6.70
2022-11-26T16:11:08.644Z,6.70
2022-11-26T16:13:36.320Z,6.70
2022-11-26T16:16:25.699Z,6.70
2022-11-26T16:19:00.357Z,6.70
2022-11-26T16:21:32.327Z,6.70
2022-11-26T16:24:05.509Z,6.70
2022-11-26T16:26:52.407Z,6.70
2022-11-26T16:29:19.174Z,6.70
2022-11-26T16:31:45.974Z,6.70
2022-11-26T16:34:12.759Z,6.70
2022-11-26T16:36:42.092Z,6.70
2022-11-26T16:39:11.894Z,6.70
2022-11-26T16:41:38.740Z,6.70
2022-11-26T16:44:05.540Z,6.70
2022-11-26T16:46:34.556Z,6.70
2022-11-26T16:49:01.651Z,6.70
2022-11-26T16:51:28.432Z,6.70
2022-11-26T16:53:55.255Z,6.70
2022-11-26T16:56:26.961Z,6.70
2022-11-26T16:58:54.578Z,6.70
2022-11-26T17:01:21.422Z,6.70
2022-11-26T17:03:48.457Z,6.70
2022-11-26T17:06:31.950Z,6.70
2022-11-26T17:08:58.803Z,6.70
2022-11-26T17:11:25.763Z,6.70
2022-11-26T17:13:53.198Z,6.70
2022-11-26T17:16:22.392Z,6.70
2022-11-26T17:18:49.959Z,6.70
2022-11-26T17:21:16.784Z,6.70
2022-11-26T17:23:43.589Z,6.70
2022-11-26T17:26:20.547Z,6.70
2022-11-26T17:28:48.333Z,6.70
2022-11-26T17:31:15.449Z,6.60
2022-11-26T17:33:42.653Z,6.70
2022-11-26T17:36:16.903Z,6.60
2022-11-26T17:38:44.294Z,6.60
2022-11-26T17:41:11.352Z,6.70
2022-11-26T17:43:38.679Z,6.70
2022-11-26T17:46:09.305Z,6.70
2022-11-26T17:48:36.128Z,6.70
2022-11-26T17:51:03.103Z,6.70
2022-11-26T17:53:29.906Z,6.60
2022-11-26T17:55:56.750Z,6.60
2022-11-26T17:58:23.664Z,6.60
2022-11-26T18:00:50.487Z,6.60
2022-11-26T18:03:17.415Z,6.60
2022-11-26T18:05:44.283Z,6.60
2022-11-26T18:08:11.141Z,6.60
2022-11-26T18:10:40.806Z,6.60
2022-11-26T18:13:09.513Z,6.60
2022-11-26T18:15:36.287Z,6.60
2022-11-26T18:18:04.504Z,6.60
2022-11-26T18:20:31.319Z,6.60
2022-11-26T18:23:00.719Z,6.60
2022-11-26T18:25:28.325Z,6.60
2022-11-26T18:27:55.340Z,6.60
2022-11-26T18:30:22.410Z,6.50
2022-11-26T18:32:49.213Z,6.50
2022-11-26T18:35:16.265Z,6.50
2022-11-26T18:37:43.262Z,6.50
2022-11-26T18:40:11.806Z,6.40
2022-11-26T18:42:39.014Z,6.40
2022-11-26T18:45:08.047Z,6.40
2022-11-26T18:47:34.886Z,6.40
2022-11-26T18:50:01.705Z,6.40
2022-11-26T18:52:28.505Z,6.40
2022-11-26T21:56:34.857Z,6.80
2022-11-26T21:59:01.742Z,6.90
2022-11-26T22:01:30.958Z,6.80
2022-11-26T22:04:09.294Z,6.90
2022-11-26T22:06:36.213Z,6.90
2022-11-26T22:09:03.839Z,6.90
2022-11-26T22:11:33.281Z,6.90
2022-11-26T22:14:00.065Z,6.90
2022-11-26T22:16:28.509Z,6.90
2022-11-26T22:18:56.421Z,6.90
2022-11-26T22:21:26.438Z,6.90
2022-11-26T22:23:53.347Z,6.90
2022-11-26T22:26:20.543Z,6.90
2022-11-26T22:28:47.835Z,6.90
2022-11-26T22:31:20.174Z,6.90
2022-11-26T22:33:47.642Z,7.00
2022-11-26T22:36:14.691Z,7.00
2022-11-26T22:38:41.737Z,7.00
2022-11-26T22:41:10.064Z,7.00
2022-11-26T22:43:37.391Z,7.00
2022-11-26T22:46:10.525Z,7.00
2022-11-26T22:48:37.381Z,7.00
2022-11-26T22:51:04.786Z,7.00
2022-11-26T22:53:33.513Z,7.00
2022-11-26T22:56:01.983Z,7.00
2022-11-26T22:58:29.416Z,7.00
2022-11-26T23:01:07.758Z,7.10
2022-11-26T23:03:36.955Z,7.10
2022-11-26T23:06:06.765Z,7.10
2022-11-26T23:08:33.849Z,7.10
2022-11-26T23:11:13.014Z,7.10
2022-11-26T23:13:40.979Z,7.10
2022-11-26T23:16:08.652Z,7.10
2022-11-26T23:18:36.529Z,7.10
2022-11-26T23:21:23.550Z,7.10
2022-11-26T23:23:50.851Z,7.10
2022-11-26T23:26:26.518Z,7.10
2022-11-26T23:28:54.360Z,7.10
2022-11-26T23:31:24.546Z,7.10
2022-11-26T23:33:51.960Z,7.10
2022-11-26T23:36:19.629Z,7.10
2022-11-26T23:38:46.466Z,7.10
2022-11-26T23:41:13.561Z,7.10
2022-11-26T23:43:40.420Z,7.10
2022-11-26T23:46:28.983Z,7.10
2022-11-26T23:48:55.892Z,7.10
2022-11-26T23:51:25.191Z,7.00
2022-11-26T23:53:52.801Z,7.00
2022-11-26T23:56:31.185Z,7.00
2022-11-26T23:59:01.573Z,7.00
